createdAt,value
2023-08-25T00:00:40.753Z,63.22
2023-08-25T00:01:40.842Z,63.12
2023-08-25T00:02:40.869Z,63.85
2023-08-25T00:03:40.789Z,64.45
2023-08-25T00:04:40.716Z,64.64
2023-08-25T00:05:40.719Z,64.54
2023-08-25T00:06:40.726Z,64.84
2023-08-25T00:07:40.695Z,64.54
2023-08-25T00:08:40.665Z,64.34
2023-08-25T00:09:40.659Z,64.61
2023-08-25T00:10:40.642Z,64.72
2023-08-25T00:11:40.657Z,64.84
2023-08-25T00:12:40.627Z,64.42
2023-08-25T00:13:40.613Z,64.64
2023-08-25T00:14:40.615Z,64.94
2023-08-25T00:15:40.650Z,64.64
2023-08-25T00:16:40.597Z,64.81
2023-08-25T00:17:40.595Z,64.81
2023-08-25T00:18:40.559Z,65.54
2023-08-25T00:19:40.551Z,64.75
2023-08-25T00:20:40.559Z,64.75
2023-08-25T00:21:40.539Z,64.75
2023-08-25T00:22:40.532Z,65.44
2023-08-25T00:23:40.511Z,65.14
2023-08-25T00:24:40.497Z,63.68
2023-08-25T00:25:40.496Z,63.85
2023-08-25T00:26:40.473Z,63.85
2023-08-25T00:27:40.459Z,63.65
2023-08-25T00:28:40.456Z,63.75
2023-08-25T00:29:40.438Z,63.75
2023-08-25T00:30:40.465Z,63.35
2023-08-25T00:31:40.583Z,63.25
2023-08-25T00:32:40.544Z,63.05
2023-08-25T00:33:40.398Z,63.25
2023-08-25T00:34:40.409Z,63.12
2023-08-25T00:35:40.427Z,63.52
2023-08-25T00:36:40.366Z,63.32
2023-08-25T00:37:40.359Z,63.22
2023-08-25T00:38:40.344Z,63.12
2023-08-25T00:39:40.373Z,63.42
2023-08-25T00:40:40.336Z,62.62
2023-08-25T00:41:40.315Z,63.02
2023-08-25T00:42:40.309Z,63.52
2023-08-25T00:43:40.307Z,63.62
2023-08-25T00:44:40.297Z,63.02
2023-08-25T00:45:40.278Z,63.52
2023-08-25T00:46:40.347Z,63.35
2023-08-25T00:47:40.268Z,63.75
2023-08-25T00:48:40.252Z,64.28
2023-08-25T00:49:40.239Z,64.54
2023-08-25T00:50:40.218Z,64.34
2023-08-25T00:51:40.206Z,64.58
2023-08-25T00:52:40.194Z,64.97
2023-08-25T00:53:40.193Z,64.78
2023-08-25T00:54:40.188Z,64.67
2023-08-25T00:55:40.166Z,65.17
2023-08-25T00:56:40.154Z,65.70
2023-08-25T00:57:40.146Z,65.70
2023-08-25T00:58:40.164Z,65.80
2023-08-25T00:59:40.129Z,65.70
2023-08-25T01:00:40.132Z,65.50
2023-08-25T01:01:40.101Z,65.41
2023-08-25T01:02:40.144Z,65.50
2023-08-25T01:03:40.095Z,64.87
2023-08-25T01:04:40.064Z,65.17
2023-08-25T01:05:40.056Z,64.97
2023-08-25T01:06:40.048Z,65.31
2023-08-25T01:07:40.076Z,64.71
2023-08-25T01:08:40.026Z,65.31
2023-08-25T01:09:40.014Z,64.67
2023-08-25T01:10:40.004Z,64.61
2023-08-25T01:11:39.990Z,64.81
2023-08-25T01:12:40.001Z,64.87
2023-08-25T01:13:39.969Z,65.17
2023-08-25T01:14:39.962Z,65.08
2023-08-25T01:15:39.952Z,65.14
2023-08-25T01:16:39.979Z,64.87
2023-08-25T01:17:39.958Z,64.64
2023-08-25T01:18:39.938Z,64.64
2023-08-25T01:19:39.903Z,65.05
2023-08-25T01:20:39.896Z,64.75
2023-08-25T01:21:39.900Z,64.75
2023-08-25T01:22:39.872Z,65.34
2023-08-25T01:23:39.877Z,65.64
2023-08-25T01:24:39.851Z,64.75
2023-08-25T01:25:39.842Z,65.44
2023-08-25T01:26:39.866Z,65.87
2023-08-25T01:27:39.886Z,65.57
2023-08-25T01:28:39.806Z,66.27
2023-08-25T01:29:39.807Z,66.70
2023-08-25T01:30:39.901Z,66.50
2023-08-25T01:31:39.792Z,67.10
2023-08-25T01:32:39.801Z,66.50
2023-08-25T01:33:39.754Z,66.70
2023-08-25T01:34:39.764Z,66.80
2023-08-25T01:35:39.764Z,66.57
2023-08-25T01:36:39.730Z,66.80
2023-08-25T01:37:39.708Z,66.80
2023-08-25T01:38:39.694Z,66.17
2023-08-25T01:39:39.684Z,66.67
2023-08-25T01:40:39.704Z,66.97
2023-08-25T01:41:39.667Z,66.57
2023-08-25T01:42:39.654Z,66.67
2023-08-25T01:43:39.644Z,66.77
2023-08-25T01:44:39.651Z,66.87
2023-08-25T01:45:39.638Z,66.77
2023-08-25T01:46:39.607Z,66.87
2023-08-25T01:47:39.627Z,66.77
2023-08-25T01:48:39.582Z,66.67
2023-08-25T01:49:39.599Z,66.77
2023-08-25T01:50:39.581Z,66.70
2023-08-25T01:51:39.552Z,66.80
2023-08-25T01:52:39.537Z,66.70
2023-08-25T01:53:39.534Z,67.00
2023-08-25T01:54:39.548Z,66.97
2023-08-25T01:55:39.505Z,66.70
2023-08-25T01:56:39.497Z,67.50
2023-08-25T01:57:39.485Z,67.70
2023-08-25T01:58:39.487Z,66.50
2023-08-25T01:59:39.491Z,67.50
2023-08-25T02:00:39.449Z,67.57
2023-08-25T02:01:39.486Z,67.36
2023-08-25T02:02:39.457Z,67.47
2023-08-25T02:03:39.444Z,67.36
2023-08-25T02:04:39.424Z,67.57
2023-08-25T02:05:39.586Z,66.77
2023-08-25T02:06:39.408Z,67.66
2023-08-25T02:07:39.379Z,67.40
2023-08-25T02:08:39.389Z,67.90
2023-08-25T02:09:39.352Z,67.80
2023-08-25T02:10:39.340Z,67.83
2023-08-25T02:11:39.333Z,68.33
2023-08-25T02:12:39.328Z,68.83
2023-08-25T02:13:39.345Z,68.63
2023-08-25T02:14:39.298Z,68.73
2023-08-25T02:15:39.288Z,68.73
2023-08-25T02:16:39.321Z,68.63
2023-08-25T02:17:39.317Z,68.83
2023-08-25T02:18:39.268Z,68.73
2023-08-25T02:19:39.245Z,68.63
2023-08-25T02:20:39.234Z,68.40
2023-08-25T02:21:39.244Z,68.40
2023-08-25T02:22:39.615Z,68.33
2023-08-25T02:23:39.203Z,68.70
2023-08-25T02:24:39.189Z,68.83
2023-08-25T02:25:39.186Z,68.79
2023-08-25T02:26:39.195Z,68.83
2023-08-25T02:27:39.173Z,68.60
2023-08-25T02:28:39.150Z,68.40
2023-08-25T02:29:39.141Z,68.40
2023-08-25T02:30:39.126Z,68.70
2023-08-25T02:31:39.166Z,68.93
2023-08-25T02:32:39.133Z,68.93
2023-08-25T02:33:39.100Z,68.79
2023-08-25T02:34:39.097Z,68.93
2023-08-25T02:35:39.080Z,68.70
2023-08-25T02:36:39.102Z,68.90
2023-08-25T02:37:39.054Z,68.66
2023-08-25T02:38:39.085Z,68.49
2023-08-25T02:39:39.028Z,68.90
2023-08-25T02:40:39.076Z,68.46
2023-08-25T02:41:39.021Z,68.46
2023-08-25T02:42:38.994Z,68.46
2023-08-25T02:43:38.983Z,68.56
2023-08-25T02:44:38.977Z,68.76
2023-08-25T02:45:39.046Z,68.66
2023-08-25T02:46:38.960Z,68.66
2023-08-25T02:47:38.952Z,68.76
2023-08-25T02:48:38.934Z,68.96
2023-08-25T02:49:38.925Z,68.76
2023-08-25T02:50:38.936Z,68.76
2023-08-25T02:51:38.903Z,68.96
2023-08-25T02:52:38.890Z,68.76
2023-08-25T02:53:38.884Z,68.76
2023-08-25T02:54:38.893Z,68.66
2023-08-25T02:55:38.871Z,68.96
2023-08-25T02:56:38.848Z,68.76
2023-08-25T02:57:38.834Z,68.93
2023-08-25T02:58:38.821Z,68.76
2023-08-25T02:59:38.853Z,68.76
2023-08-25T03:00:38.805Z,68.76
2023-08-25T03:01:38.843Z,68.53
2023-08-25T03:02:38.862Z,68.66
2023-08-25T03:03:38.782Z,68.53
2023-08-25T03:04:38.793Z,68.63
2023-08-25T03:05:38.749Z,68.56
2023-08-25T03:06:38.754Z,68.86
2023-08-25T03:07:38.728Z,68.93
2023-08-25T03:08:38.714Z,68.63
2023-08-25T03:09:38.729Z,68.56
2023-08-25T03:10:38.722Z,68.76
2023-08-25T03:11:38.681Z,68.76
2023-08-25T03:12:38.676Z,68.66
2023-08-25T03:13:38.696Z,68.66
2023-08-25T03:14:38.665Z,68.60
2023-08-25T03:15:38.650Z,68.46
2023-08-25T03:16:38.658Z,68.66
2023-08-25T03:17:38.641Z,68.96
2023-08-25T03:18:38.624Z,69.06
2023-08-25T03:19:38.609Z,69.16
2023-08-25T03:20:38.592Z,69.16
2023-08-25T03:21:38.575Z,69.16
2023-08-25T03:22:38.589Z,69.16
2023-08-25T03:23:38.650Z,69.06
2023-08-25T03:24:38.544Z,69.16
2023-08-25T03:25:38.532Z,69.16
2023-08-25T03:26:38.542Z,68.76
2023-08-25T03:27:38.543Z,68.76
2023-08-25T03:28:38.524Z,68.76
2023-08-25T03:29:38.487Z,68.86
2023-08-25T03:30:38.488Z,68.76
2023-08-25T03:31:38.498Z,68.96
2023-08-25T03:32:38.541Z,69.06
2023-08-25T03:33:38.447Z,68.96
2023-08-25T03:34:38.436Z,68.86
2023-08-25T03:35:38.429Z,69.06
2023-08-25T03:36:38.416Z,69.02
2023-08-25T03:37:38.447Z,68.73
2023-08-25T03:38:38.391Z,68.83
2023-08-25T03:39:38.381Z,68.83
2023-08-25T03:40:38.387Z,68.96
2023-08-25T03:41:38.372Z,68.93
2023-08-25T03:42:38.377Z,68.96
2023-08-25T03:43:38.358Z,68.93
2023-08-25T03:44:38.342Z,69.02
2023-08-25T03:45:38.320Z,68.93
2023-08-25T03:46:38.335Z,68.93
2023-08-25T03:47:38.319Z,69.13
2023-08-25T03:48:38.283Z,69.02
2023-08-25T03:49:38.285Z,68.93
2023-08-25T03:50:38.276Z,68.93
2023-08-25T03:51:38.273Z,69.13
2023-08-25T03:52:38.239Z,68.86
2023-08-25T03:53:38.231Z,68.96
2023-08-25T03:54:38.218Z,69.02
2023-08-25T03:55:38.238Z,69.06
2023-08-25T03:56:38.208Z,69.32
2023-08-25T03:57:38.188Z,69.26
2023-08-25T03:58:38.201Z,69.66
2023-08-25T03:59:38.170Z,69.26
2023-08-25T04:00:38.209Z,69.43
2023-08-25T04:01:38.164Z,69.26
2023-08-25T04:02:38.156Z,69.46
2023-08-25T04:03:38.135Z,69.76
2023-08-25T04:04:38.112Z,70.12
2023-08-25T04:05:38.127Z,70.06
2023-08-25T04:06:38.086Z,70.06
2023-08-25T04:07:38.076Z,69.86
2023-08-25T04:08:38.069Z,69.96
2023-08-25T04:09:38.081Z,69.26
2023-08-25T04:10:38.057Z,69.26
2023-08-25T04:11:38.041Z,69.46
2023-08-25T04:12:38.032Z,69.86
2023-08-25T04:13:38.021Z,69.16
2023-08-25T04:14:38.039Z,69.76
2023-08-25T04:15:37.992Z,69.96
2023-08-25T04:16:38.030Z,69.06
2023-08-25T04:17:38.043Z,69.76
2023-08-25T04:18:37.958Z,69.86
2023-08-25T04:19:37.961Z,69.96
2023-08-25T04:20:37.954Z,69.76
2023-08-25T04:21:37.936Z,69.66
2023-08-25T04:22:37.926Z,69.76
2023-08-25T04:23:37.907Z,69.76
2023-08-25T04:24:37.909Z,69.76
2023-08-25T04:25:37.884Z,69.76
2023-08-25T04:26:37.871Z,69.86
2023-08-25T04:27:37.871Z,69.86
2023-08-25T04:28:37.858Z,70.06
2023-08-25T04:29:44.920Z,69.66
2023-08-25T04:30:37.853Z,69.66
2023-08-25T04:31:37.827Z,69.76
2023-08-25T04:32:37.835Z,69.86
2023-08-25T04:33:38.114Z,69.96
2023-08-25T04:34:37.796Z,69.76
2023-08-25T04:35:37.776Z,69.66
2023-08-25T04:36:37.816Z,69.23
2023-08-25T04:37:37.760Z,69.36
2023-08-25T04:38:37.750Z,70.06
2023-08-25T04:39:37.757Z,70.12
2023-08-25T04:40:37.721Z,69.92
2023-08-25T04:41:37.707Z,69.13
2023-08-25T04:42:39.176Z,69.62
2023-08-25T04:43:37.701Z,69.73
2023-08-25T04:44:37.679Z,69.53
2023-08-25T04:45:37.694Z,69.43
2023-08-25T04:46:37.665Z,69.82
2023-08-25T04:47:37.677Z,69.82
2023-08-25T04:48:38.728Z,69.32
2023-08-25T04:49:37.621Z,69.32
2023-08-25T04:50:37.628Z,69.32
2023-08-25T04:51:37.640Z,69.23
2023-08-25T04:52:37.606Z,68.90
2023-08-25T04:53:37.587Z,68.90
2023-08-25T04:54:37.567Z,68.30
2023-08-25T04:55:37.564Z,68.60
2023-08-25T04:56:37.563Z,68.70
2023-08-25T04:57:37.549Z,68.79
2023-08-25T04:58:37.552Z,68.37
2023-08-25T04:59:37.512Z,68.70
2023-08-25T05:00:37.584Z,68.46
2023-08-25T05:01:37.589Z,68.16
2023-08-25T05:02:37.561Z,67.37
2023-08-25T05:03:37.559Z,67.37
2023-08-25T05:04:37.476Z,67.07
2023-08-25T05:05:37.459Z,67.37
2023-08-25T05:06:37.653Z,67.67
2023-08-25T05:07:38.139Z,67.77
2023-08-25T05:08:37.414Z,67.77
2023-08-25T05:09:37.402Z,67.86
2023-08-25T05:10:37.407Z,67.77
2023-08-25T05:11:37.458Z,68.07
2023-08-25T05:12:37.365Z,68.07
2023-08-25T05:13:37.355Z,68.07
2023-08-25T05:14:37.343Z,67.86
2023-08-25T05:15:37.530Z,67.86
2023-08-25T05:16:37.364Z,68.27
2023-08-25T05:17:37.325Z,67.97
2023-08-25T05:18:37.363Z,68.16
2023-08-25T05:19:37.288Z,67.97
2023-08-25T05:20:37.300Z,68.16
2023-08-25T05:21:37.277Z,68.07
2023-08-25T05:22:37.257Z,68.27
2023-08-25T05:23:37.253Z,67.86
2023-08-25T05:24:37.290Z,68.07
2023-08-25T05:25:37.225Z,67.54
2023-08-25T05:26:37.332Z,67.44
2023-08-25T05:27:37.345Z,66.74
2023-08-25T05:28:37.192Z,66.64
2023-08-25T05:29:37.179Z,66.71
2023-08-25T05:30:37.169Z,66.61
2023-08-25T05:31:37.219Z,66.41
2023-08-25T05:32:37.274Z,66.01
2023-08-25T05:33:37.178Z,65.39
2023-08-25T05:34:37.120Z,65.28
2023-08-25T05:35:37.112Z,64.98
2023-08-25T05:36:37.118Z,64.89
2023-08-25T05:37:37.101Z,64.69
2023-08-25T05:38:37.076Z,65.39
2023-08-25T05:39:37.095Z,64.39
2023-08-25T05:40:37.096Z,64.59
2023-08-25T05:41:37.075Z,64.59
2023-08-25T05:42:37.034Z,64.69
2023-08-25T05:43:37.027Z,65.09
2023-08-25T05:44:37.027Z,64.79
2023-08-25T05:45:37.012Z,65.19
2023-08-25T05:46:37.012Z,64.98
2023-08-25T05:47:36.996Z,64.69
2023-08-25T05:48:36.995Z,64.98
2023-08-25T05:49:36.979Z,65.58
2023-08-25T05:50:36.983Z,65.35
2023-08-25T05:51:36.978Z,64.76
2023-08-25T05:52:36.926Z,64.49
2023-08-25T05:53:36.912Z,65.16
2023-08-25T05:54:36.934Z,64.36
2023-08-25T05:55:36.903Z,64.26
2023-08-25T05:56:36.881Z,63.57
2023-08-25T05:57:36.870Z,63.67
2023-08-25T05:58:36.865Z,63.43
2023-08-25T05:59:36.862Z,63.54
2023-08-25T06:00:36.856Z,63.04
2023-08-25T06:01:36.868Z,62.94
2023-08-25T06:02:36.855Z,63.04
2023-08-25T06:03:36.854Z,63.24
2023-08-25T06:04:36.817Z,63.24
2023-08-25T06:05:36.802Z,63.13
2023-08-25T06:06:36.768Z,62.64
2023-08-25T06:07:36.760Z,62.51
2023-08-25T06:08:36.750Z,62.61
2023-08-25T06:09:36.752Z,62.12
2023-08-25T06:10:36.725Z,62.61
2023-08-25T06:11:36.719Z,62.48
2023-08-25T06:12:36.703Z,62.48
2023-08-25T06:13:36.703Z,62.05
2023-08-25T06:14:36.721Z,61.89
2023-08-25T06:15:36.676Z,60.99
2023-08-25T06:16:36.679Z,61.16
2023-08-25T06:17:36.742Z,61.19
2023-08-25T06:18:36.654Z,61.19
2023-08-25T06:19:36.633Z,60.96
2023-08-25T06:20:36.620Z,61.16
2023-08-25T06:21:36.629Z,61.16
2023-08-25T06:22:36.604Z,61.07
2023-08-25T06:23:36.603Z,61.16
2023-08-25T06:24:36.583Z,61.36
2023-08-25T06:25:36.569Z,61.36
2023-08-25T06:26:36.558Z,61.53
2023-08-25T06:27:36.555Z,61.83
2023-08-25T06:28:36.575Z,61.53
2023-08-25T06:29:36.520Z,60.74
2023-08-25T06:30:36.515Z,60.74
2023-08-25T06:31:36.549Z,60.14
2023-08-25T06:32:36.507Z,60.44
2023-08-25T06:33:36.497Z,60.05
2023-08-25T06:34:36.485Z,60.74
2023-08-25T06:35:36.457Z,60.74
2023-08-25T06:36:36.454Z,60.54
2023-08-25T06:37:36.469Z,60.24
2023-08-25T06:38:49.979Z,59.52
2023-08-25T06:39:37.416Z,59.92
2023-08-25T06:40:36.416Z,59.22
2023-08-25T06:41:36.398Z,59.42
2023-08-25T06:42:36.404Z,60.08
2023-08-25T06:43:36.375Z,59.79
2023-08-25T06:44:36.373Z,58.77
2023-08-25T06:45:36.421Z,59.06
2023-08-25T06:46:36.361Z,58.05
2023-08-25T06:47:36.373Z,57.43
2023-08-25T06:48:36.324Z,57.50
2023-08-25T06:49:36.317Z,57.30
2023-08-25T06:50:36.308Z,56.68
2023-08-25T06:51:36.310Z,56.06
2023-08-25T06:52:36.280Z,55.87
2023-08-25T06:53:36.293Z,55.24
2023-08-25T06:54:36.264Z,55.22
2023-08-25T06:55:36.282Z,54.70
2023-08-25T06:56:36.249Z,53.99
2023-08-25T06:57:36.231Z,53.36
2023-08-25T06:58:36.226Z,53.47
2023-08-25T06:59:36.300Z,52.65
2023-08-25T07:00:36.219Z,52.72
2023-08-25T07:01:36.254Z,52.23
2023-08-25T07:02:36.209Z,51.62
2023-08-25T07:03:36.421Z,51.89
2023-08-25T07:04:36.157Z,50.59
2023-08-25T07:05:36.157Z,50.46
2023-08-25T07:06:36.133Z,50.93
2023-08-25T07:07:36.169Z,50.22
2023-08-25T07:08:36.110Z,49.11
2023-08-25T07:09:36.186Z,48.52
2023-08-25T07:10:36.125Z,48.90
2023-08-25T07:11:36.088Z,48.50
2023-08-25T07:12:36.096Z,48.19
2023-08-25T07:13:36.106Z,47.36
2023-08-25T07:14:36.066Z,47.36
2023-08-25T07:15:36.123Z,46.84
2023-08-25T07:16:36.029Z,46.65
2023-08-25T07:17:36.107Z,46.65
2023-08-25T07:18:36.010Z,45.84
2023-08-25T07:19:36.014Z,45.84
2023-08-25T07:20:35.995Z,46.41
2023-08-25T07:21:35.982Z,45.92
2023-08-25T07:22:35.982Z,46.21
2023-08-25T07:23:35.960Z,46.50
2023-08-25T07:24:35.979Z,45.92
2023-08-25T07:25:35.961Z,44.82
2023-08-25T07:26:35.930Z,45.21
2023-08-25T07:27:35.925Z,44.92
2023-08-25T07:28:35.913Z,44.53
2023-08-25T07:29:35.909Z,44.70
2023-08-25T07:30:35.916Z,44.70
2023-08-25T07:31:35.906Z,44.70
2023-08-25T07:32:35.894Z,44.12
2023-08-25T07:33:35.858Z,44.09
2023-08-25T07:34:35.863Z,43.88
2023-08-25T07:35:35.849Z,43.78
2023-08-25T07:36:35.833Z,43.95
2023-08-25T07:37:35.829Z,43.78
2023-08-25T07:38:35.834Z,43.27
2023-08-25T07:39:35.804Z,43.47
2023-08-25T07:40:35.820Z,43.93
2023-08-25T07:41:35.817Z,43.35
2023-08-25T07:42:35.777Z,42.65
2023-08-25T07:43:35.763Z,42.25
2023-08-25T07:44:35.773Z,41.86
2023-08-25T07:45:35.761Z,42.72
2023-08-25T07:46:35.745Z,41.65
2023-08-25T07:47:35.774Z,42.02
2023-08-25T07:48:36.231Z,41.44
2023-08-25T07:49:35.732Z,41.93
2023-08-25T07:50:35.725Z,41.93
2023-08-25T07:51:40.265Z,41.93
2023-08-25T07:52:36.674Z,42.21
2023-08-25T07:53:35.674Z,41.93
2023-08-25T07:54:35.682Z,42.10
2023-08-25T07:55:35.649Z,41.90
2023-08-25T07:56:35.642Z,41.80
2023-08-25T07:57:35.650Z,41.61
2023-08-25T07:58:35.709Z,41.71
2023-08-25T07:59:35.629Z,41.98
2023-08-25T08:00:35.627Z,41.01
2023-08-25T08:01:35.593Z,40.72
2023-08-25T08:02:35.608Z,40.69
2023-08-25T08:03:35.622Z,40.11
2023-08-25T08:04:35.570Z,40.41
2023-08-25T08:05:35.613Z,40.09
2023-08-25T08:06:35.547Z,39.76
2023-08-25T08:07:35.540Z,39.86
2023-08-25T08:08:35.614Z,39.67
2023-08-25T08:09:35.587Z,39.67
2023-08-25T08:10:35.520Z,39.01
2023-08-25T08:11:35.506Z,38.99
2023-08-25T08:12:35.491Z,39.01
2023-08-25T08:13:35.525Z,39.88
2023-08-25T08:14:44.257Z,39.28
2023-08-25T08:15:36.477Z,38.79
2023-08-25T08:16:38.110Z,39.37
2023-08-25T08:17:35.516Z,39.26
2023-08-25T08:18:35.450Z,39.26
2023-08-25T08:19:35.442Z,39.04
2023-08-25T08:20:35.424Z,38.95
2023-08-25T08:21:35.430Z,38.68
2023-08-25T08:22:35.437Z,38.78
2023-08-25T08:23:35.386Z,37.57
2023-08-25T08:24:48.121Z,37.48
2023-08-25T08:25:36.371Z,37.77
2023-08-25T08:26:35.387Z,38.54
2023-08-25T08:27:35.344Z,37.75
2023-08-25T08:28:35.345Z,37.75
2023-08-25T08:29:35.380Z,36.96
2023-08-25T08:30:35.322Z,37.23
2023-08-25T08:31:35.353Z,37.05
2023-08-25T08:32:35.368Z,36.96
2023-08-25T08:33:35.296Z,37.15
2023-08-25T08:34:35.296Z,37.04
2023-08-25T08:35:35.289Z,36.47
2023-08-25T08:36:35.285Z,36.65
2023-08-25T08:37:35.257Z,37.07
2023-08-25T08:38:35.249Z,36.58
2023-08-25T08:39:35.242Z,37.77
2023-08-25T08:40:35.242Z,37.28
2023-08-25T08:41:35.232Z,37.75
2023-08-25T08:42:35.214Z,38.21
2023-08-25T08:43:35.213Z,37.92
2023-08-25T08:44:35.227Z,37.15
2023-08-25T08:45:35.216Z,36.66
2023-08-25T08:46:35.214Z,36.76
2023-08-25T08:47:35.203Z,36.49
2023-08-25T08:48:35.158Z,36.66
2023-08-25T08:49:35.226Z,37.17
2023-08-25T08:50:35.155Z,37.36
2023-08-25T08:51:35.130Z,37.94
2023-08-25T08:52:35.131Z,37.77
2023-08-25T08:53:35.116Z,37.67
2023-08-25T08:54:35.120Z,37.77
2023-08-25T08:55:35.094Z,37.28
2023-08-25T08:56:35.104Z,38.06
2023-08-25T08:57:35.197Z,37.85
2023-08-25T08:58:35.070Z,37.94
2023-08-25T08:59:35.118Z,37.85
2023-08-25T09:00:35.073Z,37.63
2023-08-25T09:01:35.174Z,37.05
2023-08-25T09:02:35.081Z,37.05
2023-08-25T09:03:35.033Z,36.65
2023-08-25T09:04:35.075Z,35.86
2023-08-25T09:05:35.005Z,36.03
2023-08-25T09:06:35.000Z,36.61
2023-08-25T09:07:34.992Z,36.42
2023-08-25T09:08:34.999Z,36.59
2023-08-25T09:09:34.980Z,36.30
2023-08-25T09:10:35.025Z,36.00
2023-08-25T09:11:34.966Z,36.09
2023-08-25T09:12:34.943Z,35.59
2023-08-25T09:13:34.944Z,35.80
2023-08-25T09:14:34.932Z,34.63
2023-08-25T09:15:35.413Z,35.44
2023-08-25T09:16:34.926Z,36.03
2023-08-25T09:17:34.963Z,36.05
2023-08-25T09:18:34.913Z,36.65
2023-08-25T09:19:34.912Z,36.47
2023-08-25T09:20:35.033Z,36.68
2023-08-25T09:21:34.864Z,38.09
2023-08-25T09:22:34.892Z,38.39
2023-08-25T09:23:34.858Z,37.98
2023-08-25T09:24:34.840Z,37.98
2023-08-25T09:25:34.831Z,37.98
2023-08-25T09:26:34.817Z,37.88
2023-08-25T09:27:34.824Z,37.23
2023-08-25T09:28:34.806Z,36.80
2023-08-25T09:29:34.796Z,36.88
2023-08-25T09:30:34.841Z,36.68
2023-08-25T09:31:34.784Z,36.68
2023-08-25T09:32:34.867Z,37.24
2023-08-25T09:33:34.777Z,37.26
2023-08-25T09:34:34.750Z,36.86
2023-08-25T09:35:34.744Z,36.99
2023-08-25T09:36:34.748Z,36.99
2023-08-25T09:37:34.743Z,37.51
2023-08-25T09:38:39.398Z,37.82
2023-08-25T09:39:35.700Z,39.11
2023-08-25T09:40:34.696Z,39.41
2023-08-25T09:41:34.811Z,40.00
2023-08-25T09:42:34.676Z,39.03
2023-08-25T09:43:34.664Z,40.31
2023-08-25T09:44:34.655Z,40.31
2023-08-25T09:45:34.693Z,40.50
2023-08-25T09:46:34.790Z,40.52
2023-08-25T09:47:34.627Z,40.52
2023-08-25T09:48:34.712Z,40.23
2023-08-25T09:49:34.632Z,40.42
2023-08-25T09:50:34.605Z,40.83
2023-08-25T09:51:34.620Z,40.33
2023-08-25T09:52:34.592Z,40.23
2023-08-25T09:53:34.632Z,40.81
2023-08-25T09:54:34.610Z,40.52
2023-08-25T09:55:34.584Z,40.91
2023-08-25T09:56:34.562Z,41.13
2023-08-25T09:57:34.555Z,41.22
2023-08-25T09:58:34.527Z,41.05
2023-08-25T09:59:34.521Z,42.33
2023-08-25T10:00:34.524Z,41.85
2023-08-25T10:01:34.547Z,41.86
2023-08-25T10:02:34.558Z,42.38
2023-08-25T10:03:34.497Z,43.47
2023-08-25T10:04:34.471Z,43.39
2023-08-25T10:05:34.596Z,43.51
2023-08-25T10:06:34.488Z,44.48
2023-08-25T10:07:34.465Z,44.41
2023-08-25T10:08:34.438Z,44.34
2023-08-25T10:09:34.437Z,45.72
2023-08-25T10:10:34.440Z,44.63
2023-08-25T10:11:34.414Z,44.63
2023-08-25T10:12:34.397Z,44.84
2023-08-25T10:13:34.390Z,45.82
2023-08-25T10:14:34.397Z,45.16
2023-08-25T10:15:34.374Z,46.04
2023-08-25T10:16:34.416Z,45.45
2023-08-25T10:17:34.407Z,45.76
2023-08-25T10:18:34.341Z,46.36
2023-08-25T10:19:34.672Z,45.16
2023-08-25T10:20:34.358Z,46.33
2023-08-25T10:21:34.340Z,45.97
2023-08-25T10:22:34.300Z,46.26
2023-08-25T10:23:34.302Z,45.69
2023-08-25T10:24:34.301Z,45.89
2023-08-25T10:25:35.157Z,46.18
2023-08-25T10:26:34.292Z,46.18
2023-08-25T10:27:34.252Z,46.08
2023-08-25T10:28:34.255Z,45.98
2023-08-25T10:29:34.255Z,46.28
2023-08-25T10:30:34.229Z,46.50
2023-08-25T10:31:34.598Z,46.59
2023-08-25T10:32:34.205Z,46.79
2023-08-25T10:33:34.212Z,47.20
2023-08-25T10:34:34.184Z,48.09
2023-08-25T10:35:34.170Z,48.28
2023-08-25T10:36:34.187Z,47.79
2023-08-25T10:37:34.191Z,47.81
2023-08-25T10:38:34.156Z,47.91
2023-08-25T10:39:34.135Z,49.02
2023-08-25T10:40:34.119Z,48.60
2023-08-25T10:41:34.112Z,49.11
2023-08-25T10:42:34.131Z,48.82
2023-08-25T10:43:34.391Z,48.72
2023-08-25T10:44:34.079Z,48.72
2023-08-25T10:45:34.148Z,47.84
2023-08-25T10:46:43.990Z,48.13
2023-08-25T10:47:35.157Z,48.13
2023-08-25T10:48:37.401Z,48.33
2023-08-25T10:49:34.029Z,49.11
2023-08-25T10:50:34.018Z,49.02
2023-08-25T10:51:34.084Z,48.82
2023-08-25T10:52:34.021Z,49.53
2023-08-25T10:53:34.008Z,49.24
2023-08-25T10:54:33.979Z,49.85
2023-08-25T10:55:34.022Z,50.32
2023-08-25T10:56:33.989Z,50.02
2023-08-25T10:57:33.982Z,50.04
2023-08-25T10:58:33.950Z,50.04
2023-08-25T10:59:33.978Z,49.82
2023-08-25T11:00:33.924Z,49.95
2023-08-25T11:01:33.966Z,50.34
2023-08-25T11:02:33.933Z,48.96
2023-08-25T11:03:33.954Z,49.07
2023-08-25T11:04:33.946Z,49.65
2023-08-25T11:05:33.916Z,49.65
2023-08-25T11:06:33.867Z,48.99
2023-08-25T11:07:33.842Z,49.48
2023-08-25T11:08:33.834Z,49.97
2023-08-25T11:09:33.950Z,50.66
2023-08-25T11:10:33.824Z,50.56
2023-08-25T11:11:33.812Z,50.76
2023-08-25T11:12:33.788Z,50.37
2023-08-25T11:13:33.777Z,51.05
2023-08-25T11:14:33.769Z,51.05
2023-08-25T11:15:33.816Z,51.05
2023-08-25T11:16:33.741Z,50.88
2023-08-25T11:17:33.764Z,50.37
2023-08-25T11:18:33.722Z,51.34
2023-08-25T11:19:33.739Z,51.67
2023-08-25T11:20:33.714Z,51.64
2023-08-25T11:21:33.696Z,51.54
2023-08-25T11:22:33.708Z,51.67
2023-08-25T11:23:33.691Z,51.45
2023-08-25T11:24:33.712Z,51.74
2023-08-25T11:25:33.669Z,51.84
2023-08-25T11:26:33.644Z,51.34
2023-08-25T11:27:33.637Z,51.34
2023-08-25T11:28:33.616Z,51.12
2023-08-25T11:29:33.626Z,50.76
2023-08-25T11:30:33.596Z,50.14
2023-08-25T11:31:33.640Z,50.24
2023-08-25T11:32:33.616Z,50.46
2023-08-25T11:33:33.587Z,51.05
2023-08-25T11:34:33.578Z,50.34
2023-08-25T11:35:33.555Z,50.83
2023-08-25T11:36:33.536Z,50.34
2023-08-25T11:37:33.526Z,51.32
2023-08-25T11:38:33.538Z,51.72
2023-08-25T11:39:33.626Z,50.54
2023-08-25T11:40:33.508Z,50.61
2023-08-25T11:41:33.505Z,51.32
2023-08-25T11:42:33.471Z,51.12
2023-08-25T11:43:33.510Z,51.32
2023-08-25T11:44:33.479Z,51.81
2023-08-25T11:45:33.462Z,50.04
2023-08-25T11:46:33.469Z,50.44
2023-08-25T11:47:33.462Z,50.54
2023-08-25T11:48:33.437Z,50.63
2023-08-25T11:49:33.415Z,50.95
2023-08-25T11:50:33.395Z,50.83
2023-08-25T11:51:33.382Z,51.05
2023-08-25T11:52:33.413Z,51.64
2023-08-25T11:53:33.395Z,51.72
2023-08-25T11:54:33.363Z,51.72
2023-08-25T11:55:33.372Z,51.91
2023-08-25T11:56:33.329Z,50.44
2023-08-25T11:57:33.350Z,50.63
2023-08-25T11:58:33.338Z,51.34
2023-08-25T11:59:33.303Z,51.15
2023-08-25T12:00:33.327Z,52.03
2023-08-25T12:01:33.301Z,51.54
2023-08-25T12:02:33.342Z,51.15
2023-08-25T12:03:33.343Z,50.56
2023-08-25T12:04:33.246Z,50.37
2023-08-25T12:05:33.247Z,50.27
2023-08-25T12:06:33.252Z,50.76
2023-08-25T12:07:33.254Z,51.45
2023-08-25T12:08:33.213Z,51.34
2023-08-25T12:09:33.195Z,51.74
2023-08-25T12:10:33.182Z,51.74
2023-08-25T12:11:33.190Z,51.84
2023-08-25T12:12:33.238Z,51.64
2023-08-25T12:13:33.210Z,50.88
2023-08-25T12:14:33.144Z,50.78
2023-08-25T12:15:33.133Z,50.29
2023-08-25T12:16:33.178Z,50.39
2023-08-25T12:17:33.169Z,50.88
2023-08-25T12:18:33.098Z,50.98
2023-08-25T12:19:33.089Z,51.17
2023-08-25T12:20:33.114Z,51.57
2023-08-25T12:21:33.102Z,51.57
2023-08-25T12:22:33.060Z,51.57
2023-08-25T12:23:33.047Z,51.34
2023-08-25T12:24:33.037Z,51.67
2023-08-25T12:25:33.059Z,51.45
2023-08-25T12:26:33.065Z,51.76
2023-08-25T12:27:33.006Z,51.67
2023-08-25T12:28:32.991Z,51.86
2023-08-25T12:29:33.004Z,51.54
2023-08-25T12:30:33.050Z,50.46
2023-08-25T12:31:33.009Z,50.85
2023-08-25T12:32:32.998Z,51.05
2023-08-25T12:33:32.952Z,50.95
2023-08-25T12:34:32.983Z,51.86
2023-08-25T12:35:32.937Z,51.86
2023-08-25T12:36:32.918Z,51.57
2023-08-25T12:37:32.902Z,51.57
2023-08-25T12:38:32.887Z,51.57
2023-08-25T12:39:32.914Z,51.59
2023-08-25T12:40:32.871Z,51.07
2023-08-25T12:41:32.859Z,51.30
2023-08-25T12:42:32.853Z,52.08
2023-08-25T12:43:32.837Z,52.08
2023-08-25T12:44:32.865Z,52.08
2023-08-25T12:45:32.844Z,51.69
2023-08-25T12:46:32.870Z,51.69
2023-08-25T12:47:32.821Z,51.69
2023-08-25T12:48:33.720Z,51.40
2023-08-25T12:49:32.784Z,52.08
2023-08-25T12:50:32.765Z,52.11
2023-08-25T12:51:36.421Z,52.80
2023-08-25T12:52:32.748Z,52.11